DLH22P KSAN-EDDM
Flight info
| Callsign | DLH22P |
|---|---|
| Flight time | N/A |
| Altitude | 37000 |
| Route | ZZOOO4 MTBAL DCT EED J236 TBC DCT KD39Q DCT KD45S DCT KD51U DCT KD66A DCT KP81G DCT KP87I DCT KP03K/N0494F390 DCT KP09M DCT VETRO DCT 54N070W DCT AVUTI/M083F390 DCT 59N050W 60N040W 60N030W 59N020W DCT GOMUP/N0474F390 DCT GINGA/N0480F410 DCT ERKIT N110 DOLAS DCT NAVPI DCT OTMEC DCT DODEN DCT TABUM DCT BOMBI T104 ROKIL ROKIL1A |
| Aircraft | A359/H-SADE2E3GHIJ1J2J3J4J5M1P2RWXYZ/LB1D1 |
Departure
| Time | N/A |
|---|---|
| Airport | San Diego International Airport (KSAN) |
Arrival
| Time | 2026-05-01 12:27 |
|---|---|
| Airport | Munich Airport (EDDM) |
| Time | Latitude | Longitude | Altitude | Speed | Heading |
|---|---|---|---|---|---|
| 2026-05-01 11:32 | 52.28715 | 4.52664 | 41276 ft | 482 kts | 105° |
| 2026-05-01 11:32 | 52.26994 | 4.63237 | 41280 ft | 482 kts | 106° |
| 2026-05-01 11:33 | 52.25263 | 4.73810 | 41265 ft | 482 kts | 106° |
| 2026-05-01 11:33 | 52.23522 | 4.84371 | 41266 ft | 482 kts | 106° |
| 2026-05-01 11:34 | 52.21771 | 4.94934 | 41266 ft | 482 kts | 106° |
| 2026-05-01 11:34 | 52.20017 | 5.05495 | 41274 ft | 483 kts | 106° |
| 2026-05-01 11:35 | 52.18245 | 5.16058 | 41280 ft | 483 kts | 106° |
| 2026-05-01 11:35 | 52.16457 | 5.26605 | 41281 ft | 483 kts | 106° |
| 2026-05-01 11:36 | 52.14663 | 5.37143 | 41290 ft | 483 kts | 106° |
| 2026-05-01 11:36 | 52.12860 | 5.47687 | 41289 ft | 483 kts | 106° |
| 2026-05-01 11:37 | 52.11048 | 5.58224 | 41296 ft | 484 kts | 106° |
| 2026-05-01 11:37 | 52.09226 | 5.68756 | 41292 ft | 484 kts | 106° |
| 2026-05-01 11:38 | 52.07132 | 5.79129 | 41294 ft | 483 kts | 115° |
| 2026-05-01 11:38 | 52.03459 | 5.88176 | 41296 ft | 480 kts | 133° |
| 2026-05-01 11:39 | 51.98830 | 5.95994 | 41297 ft | 481 kts | 136° |
| 2026-05-01 11:39 | 51.94042 | 6.03591 | 41296 ft | 482 kts | 136° |
| 2026-05-01 11:40 | 51.89239 | 6.11173 | 41305 ft | 482 kts | 136° |
| 2026-05-01 11:40 | 51.84455 | 6.18778 | 41309 ft | 482 kts | 136° |
| 2026-05-01 11:41 | 51.79681 | 6.26382 | 41312 ft | 482 kts | 136° |
| 2026-05-01 11:41 | 51.74938 | 6.33924 | 41313 ft | 482 kts | 136° |
| 2026-05-01 11:42 | 51.70149 | 6.41526 | 41312 ft | 483 kts | 136° |
| 2026-05-01 11:42 | 51.65349 | 6.49101 | 41311 ft | 483 kts | 136° |
| 2026-05-01 11:43 | 51.60535 | 6.56664 | 41303 ft | 483 kts | 136° |
| 2026-05-01 11:43 | 51.55718 | 6.64216 | 41305 ft | 484 kts | 136° |
| 2026-05-01 11:44 | 51.48480 | 6.75525 | 41305 ft | 484 kts | 136° |
| 2026-05-01 11:44 | 51.43646 | 6.83059 | 41304 ft | 485 kts | 136° |
| 2026-05-01 11:45 | 51.38799 | 6.90573 | 41311 ft | 484 kts | 136° |
| 2026-05-01 11:45 | 51.33952 | 6.98071 | 41312 ft | 485 kts | 136° |
| 2026-05-01 11:46 | 51.29098 | 7.05571 | 41318 ft | 486 kts | 136° |
| 2026-05-01 11:46 | 51.24223 | 7.13057 | 41323 ft | 486 kts | 136° |
| 2026-05-01 11:47 | 51.19350 | 7.20519 | 41325 ft | 486 kts | 136° |
| 2026-05-01 11:47 | 51.14466 | 7.27975 | 41332 ft | 486 kts | 136° |
| 2026-05-01 11:48 | 51.09582 | 7.35410 | 41326 ft | 486 kts | 136° |
| 2026-05-01 11:48 | 51.04697 | 7.42844 | 41331 ft | 486 kts | 136° |
| 2026-05-01 11:49 | 50.99788 | 7.50278 | 41336 ft | 487 kts | 136° |
| 2026-05-01 11:49 | 50.94879 | 7.57674 | 41342 ft | 487 kts | 136° |
| 2026-05-01 11:50 | 50.89967 | 7.65057 | 41343 ft | 486 kts | 136° |
| 2026-05-01 11:50 | 50.85049 | 7.72430 | 41356 ft | 488 kts | 136° |
| 2026-05-01 11:51 | 50.80152 | 7.79755 | 41361 ft | 488 kts | 136° |
| 2026-05-01 11:51 | 50.75209 | 7.87122 | 41368 ft | 489 kts | 136° |
| 2026-05-01 11:52 | 50.70263 | 7.94472 | 41373 ft | 488 kts | 136° |
| 2026-05-01 11:52 | 50.65312 | 8.01815 | 41374 ft | 488 kts | 136° |
| 2026-05-01 11:53 | 50.60273 | 8.08963 | 41355 ft | 489 kts | 142° |
| 2026-05-01 11:53 | 50.54643 | 8.15030 | 41350 ft | 490 kts | 147° |
| 2026-05-01 11:54 | 50.48888 | 8.20814 | 41354 ft | 491 kts | 147° |
| 2026-05-01 11:54 | 50.43130 | 8.26527 | 41352 ft | 488 kts | 147° |
| 2026-05-01 11:55 | 50.37403 | 8.32227 | 41350 ft | 488 kts | 147° |
| 2026-05-01 11:55 | 50.31661 | 8.37967 | 41350 ft | 492 kts | 146° |
| 2026-05-01 11:56 | 50.26500 | 8.44927 | 41348 ft | 491 kts | 133° |
| 2026-05-01 11:56 | 50.21800 | 8.52706 | 41350 ft | 492 kts | 131° |
| 2026-05-01 11:57 | 50.17970 | 8.59245 | 41347 ft | 491 kts | 131° |
| 2026-05-01 11:57 | 50.12572 | 8.68422 | 41347 ft | 491 kts | 132° |
| 2026-05-01 11:58 | 50.07935 | 8.76230 | 41344 ft | 492 kts | 131° |
| 2026-05-01 11:59 | 50.00737 | 8.87522 | 41348 ft | 492 kts | 137° |
| 2026-05-01 11:59 | 49.95596 | 8.94525 | 41347 ft | 490 kts | 138° |
| 2026-05-01 12:00 | 49.87938 | 9.05052 | 41346 ft | 492 kts | 137° |
| 2026-05-01 12:01 | 49.80325 | 9.15717 | 41305 ft | 493 kts | 136° |
| 2026-05-01 12:01 | 49.77784 | 9.19276 | 41080 ft | 492 kts | 136° |
| 2026-05-01 12:01 | 49.75260 | 9.22799 | 40564 ft | 488 kts | 137° |
| 2026-05-01 12:01 | 49.72731 | 9.26321 | 39803 ft | 490 kts | 136° |
| 2026-05-01 12:02 | 49.70191 | 9.29857 | 39046 ft | 493 kts | 137° |
| 2026-05-01 12:02 | 49.68505 | 9.32203 | 38496 ft | 492 kts | 137° |
| 2026-05-01 12:02 | 49.65966 | 9.35732 | 37717 ft | 491 kts | 137° |
| 2026-05-01 12:02 | 49.63430 | 9.39253 | 37027 ft | 489 kts | 137° |
| 2026-05-01 12:03 | 49.61049 | 9.42964 | 36378 ft | 486 kts | 131° |
| 2026-05-01 12:03 | 49.58777 | 9.46810 | 35727 ft | 484 kts | 130° |
| 2026-05-01 12:03 | 49.56538 | 9.50686 | 35027 ft | 484 kts | 129° |
| 2026-05-01 12:03 | 49.54321 | 9.54572 | 34432 ft | 481 kts | 130° |
| 2026-05-01 12:04 | 49.52125 | 9.58433 | 33836 ft | 477 kts | 129° |
| 2026-05-01 12:04 | 49.49950 | 9.62255 | 33302 ft | 472 kts | 129° |
| 2026-05-01 12:04 | 49.47795 | 9.66035 | 32772 ft | 467 kts | 130° |
| 2026-05-01 12:04 | 49.45659 | 9.69769 | 32236 ft | 463 kts | 130° |
| 2026-05-01 12:05 | 49.43540 | 9.73465 | 31720 ft | 459 kts | 130° |
| 2026-05-01 12:05 | 49.39350 | 9.80749 | 30684 ft | 451 kts | 129° |
| 2026-05-01 12:05 | 49.37287 | 9.84332 | 30129 ft | 447 kts | 129° |
| 2026-05-01 12:06 | 49.35236 | 9.87886 | 29617 ft | 442 kts | 130° |
| 2026-05-01 12:06 | 49.33207 | 9.91384 | 29103 ft | 437 kts | 129° |
| 2026-05-01 12:06 | 49.31198 | 9.94838 | 28610 ft | 432 kts | 129° |
| 2026-05-01 12:06 | 49.29211 | 9.98251 | 28109 ft | 427 kts | 129° |
| 2026-05-01 12:07 | 49.27244 | 10.01626 | 27612 ft | 422 kts | 129° |
| 2026-05-01 12:07 | 49.25296 | 10.04966 | 27119 ft | 418 kts | 129° |
| 2026-05-01 12:07 | 49.23371 | 10.08267 | 26634 ft | 415 kts | 129° |
| 2026-05-01 12:07 | 49.21458 | 10.11543 | 26104 ft | 411 kts | 129° |
| 2026-05-01 12:08 | 49.19585 | 10.14749 | 25658 ft | 408 kts | 130° |
| 2026-05-01 12:08 | 49.17682 | 10.18010 | 25168 ft | 404 kts | 129° |
| 2026-05-01 12:08 | 49.15843 | 10.21153 | 24680 ft | 401 kts | 130° |
| 2026-05-01 12:08 | 49.13963 | 10.24358 | 24191 ft | 398 kts | 129° |
| 2026-05-01 12:09 | 49.12096 | 10.27468 | 23659 ft | 396 kts | 130° |
| 2026-05-01 12:09 | 49.10214 | 10.30505 | 23158 ft | 392 kts | 131° |
| 2026-05-01 12:09 | 49.08339 | 10.33487 | 22672 ft | 387 kts | 131° |
| 2026-05-01 12:09 | 49.06485 | 10.36427 | 22183 ft | 382 kts | 131° |
| 2026-05-01 12:10 | 49.04654 | 10.39334 | 21710 ft | 378 kts | 131° |
| 2026-05-01 12:10 | 49.01085 | 10.45023 | 20759 ft | 370 kts | 131° |
| 2026-05-01 12:10 | 48.99322 | 10.47854 | 20280 ft | 366 kts | 131° |
| 2026-05-01 12:11 | 48.95837 | 10.53419 | 19329 ft | 359 kts | 131° |
| 2026-05-01 12:11 | 48.94118 | 10.56155 | 18856 ft | 356 kts | 131° |
| 2026-05-01 12:11 | 48.92412 | 10.58871 | 18364 ft | 353 kts | 131° |
| 2026-05-01 12:12 | 48.90724 | 10.61551 | 17892 ft | 349 kts | 131° |
| 2026-05-01 12:12 | 48.89056 | 10.64195 | 17417 ft | 344 kts | 131° |
| 2026-05-01 12:12 | 48.87408 | 10.66805 | 16965 ft | 340 kts | 131° |
| 2026-05-01 12:12 | 48.85777 | 10.69387 | 16502 ft | 337 kts | 131° |
| 2026-05-01 12:13 | 48.84166 | 10.71940 | 16049 ft | 333 kts | 131° |
| 2026-05-01 12:13 | 48.82570 | 10.74467 | 15590 ft | 330 kts | 131° |
| 2026-05-01 12:13 | 48.80989 | 10.76964 | 15161 ft | 327 kts | 131° |
| 2026-05-01 12:13 | 48.79420 | 10.79446 | 14740 ft | 326 kts | 131° |
| 2026-05-01 12:14 | 48.77847 | 10.81914 | 14285 ft | 324 kts | 131° |
| 2026-05-01 12:14 | 48.76285 | 10.84362 | 13805 ft | 323 kts | 132° |
| 2026-05-01 12:14 | 48.74725 | 10.86806 | 13351 ft | 322 kts | 132° |
| 2026-05-01 12:14 | 48.73175 | 10.89230 | 12911 ft | 318 kts | 131° |
| 2026-05-01 12:15 | 48.71649 | 10.91625 | 12473 ft | 314 kts | 132° |
| 2026-05-01 12:15 | 48.70135 | 10.93996 | 12032 ft | 312 kts | 131° |
| 2026-05-01 12:15 | 48.68637 | 10.96337 | 11615 ft | 308 kts | 131° |
| 2026-05-01 12:15 | 48.67149 | 10.98656 | 11201 ft | 306 kts | 131° |
| 2026-05-01 12:16 | 48.65670 | 11.00958 | 10815 ft | 302 kts | 132° |
| 2026-05-01 12:16 | 48.64239 | 11.03180 | 10678 ft | 288 kts | 131° |
| 2026-05-01 12:16 | 48.62872 | 11.05304 | 10551 ft | 276 kts | 131° |
| 2026-05-01 12:16 | 48.61560 | 11.07342 | 10423 ft | 265 kts | 132° |
| 2026-05-01 12:17 | 48.60279 | 11.09324 | 10241 ft | 267 kts | 131° |
| 2026-05-01 12:17 | 48.58955 | 11.11375 | 10176 ft | 276 kts | 131° |
| 2026-05-01 12:17 | 48.57504 | 11.13279 | 9709 ft | 277 kts | 139° |
| 2026-05-01 12:17 | 48.55958 | 11.15019 | 9388 ft | 277 kts | 141° |
| 2026-05-01 12:18 | 48.54382 | 11.16672 | 9083 ft | 275 kts | 143° |
| 2026-05-01 12:18 | 48.52804 | 11.18271 | 8761 ft | 272 kts | 143° |
| 2026-05-01 12:18 | 48.51342 | 11.20041 | 8439 ft | 268 kts | 133° |
| 2026-05-01 12:18 | 48.50056 | 11.22079 | 8130 ft | 268 kts | 130° |
| 2026-05-01 12:19 | 48.48817 | 11.24175 | 7841 ft | 267 kts | 129° |
| 2026-05-01 12:19 | 48.47599 | 11.26271 | 7527 ft | 266 kts | 129° |
| 2026-05-01 12:19 | 48.46385 | 11.28376 | 7280 ft | 265 kts | 129° |
| 2026-05-01 12:19 | 48.45192 | 11.30435 | 7084 ft | 256 kts | 129° |
| 2026-05-01 12:20 | 48.44042 | 11.32431 | 6846 ft | 249 kts | 129° |
| 2026-05-01 12:20 | 48.42921 | 11.34386 | 6611 ft | 244 kts | 129° |
| 2026-05-01 12:20 | 48.41820 | 11.36302 | 6352 ft | 239 kts | 128° |
| 2026-05-01 12:20 | 48.40747 | 11.38174 | 6091 ft | 234 kts | 129° |
| 2026-05-01 12:21 | 48.39701 | 11.40007 | 5878 ft | 228 kts | 129° |
| 2026-05-01 12:21 | 48.38681 | 11.41789 | 5690 ft | 220 kts | 129° |
| 2026-05-01 12:21 | 48.37698 | 11.43501 | 5548 ft | 212 kts | 129° |
| 2026-05-01 12:21 | 48.36742 | 11.45153 | 5410 ft | 207 kts | 128° |
| 2026-05-01 12:22 | 48.35813 | 11.46767 | 5259 ft | 201 kts | 128° |
| 2026-05-01 12:22 | 48.34959 | 11.48360 | 5101 ft | 191 kts | 123° |
| 2026-05-01 12:22 | 48.34428 | 11.50144 | 4996 ft | 185 kts | 103° |
| 2026-05-01 12:22 | 48.34368 | 11.52045 | 4814 ft | 181 kts | 86° |
| 2026-05-01 12:23 | 48.34514 | 11.53916 | 4555 ft | 180 kts | 84° |
| 2026-05-01 12:23 | 48.34664 | 11.55786 | 4289 ft | 180 kts | 85° |
| 2026-05-01 12:23 | 48.34803 | 11.57646 | 4029 ft | 177 kts | 84° |
| 2026-05-01 12:23 | 48.34941 | 11.59467 | 3801 ft | 175 kts | 85° |
| 2026-05-01 12:24 | 48.35081 | 11.61257 | 3581 ft | 168 kts | 84° |
| 2026-05-01 12:24 | 48.35213 | 11.62958 | 3360 ft | 161 kts | 83° |
| 2026-05-01 12:24 | 48.35344 | 11.64603 | 3143 ft | 155 kts | 84° |
| 2026-05-01 12:24 | 48.35459 | 11.66162 | 2945 ft | 146 kts | 83° |
| 2026-05-01 12:25 | 48.35576 | 11.67651 | 2751 ft | 140 kts | 85° |
| 2026-05-01 12:25 | 48.35783 | 11.70373 | 2385 ft | 127 kts | 83° |
| 2026-05-01 12:25 | 48.35885 | 11.71697 | 2190 ft | 127 kts | 83° |
| 2026-05-01 12:26 | 48.35985 | 11.72985 | 2029 ft | 123 kts | 85° |
| 2026-05-01 12:26 | 48.36181 | 11.75545 | 1683 ft | 123 kts | 85° |
| 2026-05-01 12:26 | 48.36283 | 11.76847 | 1524 ft | 127 kts | 86° |
| 2026-05-01 12:27 | 48.36379 | 11.78106 | 1480 ft | 104 kts | 83° |
| 2026-05-01 12:27 | 48.36452 | 11.79122 | 1480 ft | 27 kts | 91° |
| 2026-05-01 12:28 | 48.36359 | 11.79574 | 1476 ft | 18 kts | 114° |
| 2026-05-01 12:28 | 48.36314 | 11.79727 | 1479 ft | 11 kts | 114° |
| 2026-05-01 12:28 | 48.36236 | 11.79734 | 1484 ft | 7 kts | 255° |
| 2026-05-01 12:29 | 48.36228 | 11.79650 | 1489 ft | 8 kts | 264° |
| 2026-05-01 12:29 | 48.36226 | 11.79633 | 1485 ft | 4 kts | 263° |
| 2026-05-01 12:29 | 48.36196 | 11.79478 | 1476 ft | 8 kts | 213° |
| 2026-05-01 12:30 | 48.36059 | 11.79487 | 1478 ft | 13 kts | 173° |
| 2026-05-01 12:30 | 48.35963 | 11.79502 | 1486 ft | 15 kts | 174° |
| 2026-05-01 12:30 | 48.35871 | 11.79517 | 1483 ft | 12 kts | 174° |
| 2026-05-01 12:31 | 48.35801 | 11.79575 | 1483 ft | 12 kts | 108° |
| 2026-05-01 12:31 | 48.35807 | 11.79705 | 1479 ft | 14 kts | 83° |
| 2026-05-01 12:31 | 48.35818 | 11.79856 | 1478 ft | 15 kts | 83° |
| 2026-05-01 12:31 | 48.35827 | 11.80001 | 1492 ft | 12 kts | 93° |
| 2026-05-01 12:32 | 48.35771 | 11.80066 | 1487 ft | 12 kts | 169° |
| 2026-05-01 12:32 | 48.35581 | 11.80112 | 1478 ft | 16 kts | 172° |
| 2026-05-01 12:32 | 48.35485 | 11.80128 | 1488 ft | 15 kts | 173° |
| 2026-05-01 12:33 | 48.35382 | 11.80152 | 1478 ft | 11 kts | 169° |
| 2026-05-01 12:33 | 48.35315 | 11.80166 | 1487 ft | 9 kts | 173° |
| 2026-05-01 12:33 | 48.35269 | 11.80165 | 1488 ft | 5 kts | 204° |
| 2026-05-01 12:33 | 48.35250 | 11.80111 | 1492 ft | 7 kts | 258° |
| 2026-05-01 12:34 | 48.35245 | 11.80047 | 1485 ft | 3 kts | 263° |
| 2026-05-01 12:34 | 48.35243 | 11.80029 | 1492 ft | 0 kts | 263° |